Hobart, OK

11:28 PM CDT on August 20, 2014 (GMT -0500)
Hobart Municipal | Change Station
CLOSE
Current Station
Airport
Location: Hobart,
Elevation: 1565 ft
Nearby Weather Stations

Elev 1565 ft 34.99 °N, 99.05 °W | Updated 35 minutes ago

Clear
Clear
87 °F
Feels Like 86 °F
N
20
Wind Variable Wind from South

Today
High -- | Low -- °F
--% Chance of Precip.
Yesterday
High -- | Low -- °F
Precip. -- in
7:00 AM 8:18 PM
Waning Crescent, 17% visible
Pressure 29.84 in
Visibility 10.0 miles
Clouds Clear
Heat Index 86 °F
Dew Point 57 °F
Humidity 36%
Rainfall 0.00 in
Snow Depth Not available.
UV 0 out of 12
Pollen 9.60 out of 12
Air Quality Not available.
Flu Activity Not available.
METAR KHBR 210353Z AUTO 17017KT 10SM CLR 31/14 A2990 RMK AO2 SLP103 T03060139

More Conditions Fewer Conditions

Pressure 29.84 in
Visibility 10.0 miles
Clouds Clear
Heat Index 86 °F
Dew Point 57 °F
Humidity 36%
Rainfall 0.00 in
Snow Depth Not available.
UV 0 out of 12
Pollen 9.60 out of 12
Air Quality Not available.
Flu Activity Not available.
METAR KHBR 210353Z AUTO 17017KT 10SM CLR 31/14 A2990 RMK AO2 SLP103 T03060139

More Conditions Fewer Conditions

10-Day Weather Forecast

Almanac

Astronomy

Aug. 20, 2014 Rise Set
Actual Time 7:00 AM CDT 8:18 PM CDT
Civil Twilight 6:33 AM CDT 8:45 PM CDT
Nautical Twilight 6:01 AM CDT 9:16 PM CDT
Astronomical Twilight 5:28 AM CDT 9:49 PM CDT
Moon 2:45 AM CDT (8/20) 5:00 PM CDT (8/20)
Length of Visible Light 14h 11m
Length of Day
13h 18m
Tomorrow will be 2m 0s shorter.
Waning Crescent, 17% of the Moon is Illuminated
Aug 21
Waning Crescent
Aug 25
New
Sep 2
First Quarter
Sep 8
Full
Sep 15
Last Quarter

Today's Extremes

State Highs State Lows

Community

WunderPhotos

Upload Photos

1,745,852 photos uploaded!

Nearby

Snow Depth

Station Depth Elevation
No new snow has been reported.

Earthquake Activity

City Distance Mag. Time & Date
Medford, Oklahoma 143 miles 3.4 5:54 AM CDT
2014-08-16
Medford, Oklahoma 144 miles 2.5 7:09 AM CDT
2014-08-15
Langston, Oklahoma 123 miles 2.9 9:49 PM CDT
2014-08-14
Perry, Oklahoma 143 miles 2.7 6:20 PM CDT
2014-08-14
Minimum magnitude displayed is 2.5.

Coastal Water Temperatures

Place Temperature
No Stations Reporting

Nearby Weather Stations